Pagrindinis puslapis
METAR-TAF:

METAR-TAF

Oro uostai :

Dubajaus tarptautinis oro uostas

Dubajus, Jungtiniai Arabų Emyratai

platuma: 25-15-10N, ilguma: 055-21-52E, Aukštis: 8 m

Dabartinis oras

Ataskaita buvo paskelbta 22 minutes, ne 07:00 UTC
Vėjas 4 kt nuo kintamojo kryptimis
Temperatūra 27°C
Drėgmė 45%
Slėgis 1019 hPa
Matomumas 10 km arba daugiau
nėra debesų žemiau 1500 m ir nėra kamuolinių lietaus debesų

METAR: OMDB 140700Z VRB04KT CAVOK 27/14 Q1019 NOSIG

Laikas: 11:22 (07:22 UTC)

Prognozė

Ataskaita buvo paskelbta 2 valandos ir 22 minutes, ne 05:00 UTC
Prognozė galioja nuo 14 metu 06 UTC su 15 metu 12 UTC
Vėjas 2 kt nuo kintamojo kryptimis
Matomumas 10 km arba daugiau
nėra debesų žemiau 1500 m ir nėra kamuolinių lietaus debesų
Tapsmas
nuo 14 metu 08 UTC su 14 metu 10 UTC
Vėjas 10 kt iš Šiaurės/Šiaurės Vakarų
Tapsmas
nuo 14 metu 15 UTC su 14 metu 17 UTC
Vėjas 5 kt iš Rytų
Tapsmas
nuo 15 metu 09 UTC su 15 metu 11 UTC
Vėjas 12 kt iš Šiaurės

TAF: OMDB 140500Z 1406/1512 VRB02KT CAVOK BECMG 1408/1410 34010KT BECMG 1415/1417 08005KT BECMG 1509/1511 36012KT

Orai ataskaitas ir orų prognozės (METAR, TAF).

turimą stotys yra geltonos ir raudonos taškus žemėlapyje.

Perkelti pele per norėdami pamatyti stoties vardą.

Tada spustelėkite, norėdami matyti oro stebėjimo ir prognozės.

Norėdami pakeisti žemėlapį: spustelėkite ant žalios mygtukų su juodo kryžiaus žemyn,; žalią mygtuką su brūkšneliu, jei norite nutolinti; arba žalių rodyklių gretimoms žemėlapius.


METAR-TAF: